Time;durP1;ratioP1;P1;durP2;ratioP2;P2;SDS_P1;SDS_P2;PMS_P1;PMS_P2;Temp;Humidity;BMP_temperature;BMP_pressure;BME280_temperature;BME280_humidity;BME280_pressure;Samples;Min_cycle;Max_cycle;Signal;HPM_P1;HPM_P2
2021/06/10 15:04:23;;;;;;;3.88;1.88;;;22.00;66.70;;;;;;6251556;22;20028;-74
2021/06/10 15:07:10;;;;;;;6.30;2.40;;;22.00;67.00;;;;;;6257190;22;20026;-72
2021/06/10 15:09:40;;;;;;;9.63;2.53;;;22.00;67.20;;;;;;6289752;22;20327;-71
2021/06/10 15:12:07;;;;;;;8.48;2.00;;;22.10;67.10;;;;;;6279919;22;20015;-71
2021/06/10 15:14:34;;;;;;;6.22;2.20;;;22.10;67.10;;;;;;6280062;22;20015;-72
2021/06/10 15:17:06;;;;;;;6.18;2.00;;;22.10;66.40;;;;;;6279187;22;20027;-71
2021/06/10 15:19:52;;;;;;;3.95;2.17;;;22.10;64.80;;;;;;6256695;22;20106;-70
2021/06/10 15:22:19;;;;;;;3.45;2.15;;;22.30;65.00;;;;;;6288836;22;20030;-72
2021/06/10 15:24:46;;;;;;;3.15;2.00;;;22.30;63.70;;;;;;6289265;22;20436;-73
2021/06/10 15:27:15;;;;;;;4.93;2.28;;;22.40;63.70;;;;;;6279673;22;20339;-74
2021/06/10 15:29:52;;;;;;;5.07;2.90;;;22.50;63.40;;;;;;6289217;22;20022;-69
2021/06/10 15:32:20;;;;;;;3.25;2.00;;;22.60;62.20;;;;;;6278614;22;20018;-72
2021/06/10 15:34:53;;;;;;;3.70;2.23;;;22.60;62.70;;;;;;6289849;22;20008;-71
2021/06/10 15:37:21;;;;;;;4.00;1.98;;;22.70;62.10;;;;;;6289304;22;20395;-73
2021/06/10 15:39:49;;;;;;;3.47;1.65;;;22.70;61.30;;;;;;6289495;22;20023;-71
2021/06/10 15:42:16;;;;;;;3.05;1.80;;;22.80;61.70;;;;;;6278582;22;20353;-76
2021/06/10 15:44:45;;;;;;;3.22;1.70;;;22.90;62.20;;;;;;6253005;22;20027;-72
2021/06/10 15:47:12;;;;;;;2.88;1.10;;;22.90;61.80;;;;;;6289030;22;20428;-72
2021/06/10 15:49:40;;;;;;;2.45;0.90;;;23.00;61.60;;;;;;6278903;22;20503;-72
2021/06/10 15:52:08;;;;;;;2.10;0.90;;;23.00;62.80;;;;;;6289820;22;20086;-73
2021/06/10 15:54:36;;;;;;;2.55;1.20;;;23.00;62.30;;;;;;6288595;22;20078;-71
2021/06/10 15:57:02;;;;;;;3.55;1.40;;;23.00;62.90;;;;;;6279016;22;20019;-73
2021/06/10 15:59:48;;;;;;;1.63;1.15;;;23.00;63.70;;;;;;6279740;22;20031;-72
2021/06/10 16:02:24;;;;;;;1.67;1.00;;;23.10;62.60;;;;;;6278586;22;20447;-73
2021/06/10 16:04:51;;;;;;;2.65;1.27;;;23.10;62.60;;;;;;6287570;22;20016;-72
2021/06/10 16:07:19;;;;;;;2.45;1.38;;;23.10;62.60;;;;;;6288942;22;20501;-74
2021/06/10 16:09:46;;;;;;;2.47;1.40;;;23.10;62.60;;;;;;6289254;22;20094;-73
2021/06/10 16:12:14;;;;;;;2.28;1.33;;;23.10;63.40;;;;;;6288492;22;20321;-72
2021/06/10 16:14:40;;;;;;;2.63;1.40;;;23.10;64.00;;;;;;6289447;22;20019;-73
2021/06/10 16:17:06;;;;;;;2.10;1.27;;;23.00;65.60;;;;;;6289090;22;20053;-71
2021/06/10 16:19:33;;;;;;;2.90;1.67;;;23.00;65.30;;;;;;6289177;22;20015;-72
2021/06/10 16:22:00;;;;;;;2.45;2.17;;;23.00;65.80;;;;;;6278776;22;20116;-73
2021/06/10 16:24:26;;;;;;;4.22;2.30;;;23.00;67.30;;;;;;6288705;22;20011;-72
2021/06/10 16:26:52;;;;;;;3.78;2.20;;;23.00;67.40;;;;;;6289233;22;20039;-72
2021/06/10 16:29:18;;;;;;;2.63;2.15;;;23.00;68.00;;;;;;6288745;22;20026;-71
2021/06/10 16:31:44;;;;;;;3.00;2.28;;;22.90;68.50;;;;;;6289623;22;20086;-71
2021/06/10 16:34:10;;;;;;;2.92;2.13;;;22.90;68.90;;;;;;6289076;22;20050;-71
2021/06/10 16:36:37;;;;;;;3.75;2.10;;;22.90;69.10;;;;;;6289143;22;20034;-71
2021/06/10 16:39:03;;;;;;;4.53;2.13;;;22.90;69.20;;;;;;6288862;22;20023;-72
2021/06/10 16:41:29;;;;;;;3.72;1.67;;;22.90;69.70;;;;;;6288732;22;20011;-71
2021/06/10 16:43:56;;;;;;;3.00;1.80;;;22.90;69.80;;;;;;6288320;22;20015;-72
2021/06/10 16:46:22;;;;;;;3.03;1.88;;;22.90;70.00;;;;;;6289058;22;20022;-71
2021/06/10 16:48:48;;;;;;;3.92;1.80;;;22.80;70.00;;;;;;6288684;22;20015;-71
2021/06/10 16:51:14;;;;;;;4.05;1.83;;;22.80;70.20;;;;;;6288598;22;20023;-70
2021/06/10 16:53:40;;;;;;;4.50;1.83;;;22.80;70.30;;;;;;6288356;22;20443;-71
2021/06/10 16:56:06;;;;;;;3.58;2.00;;;22.80;71.20;;;;;;6288734;22;20016;-72
2021/06/10 16:58:33;;;;;;;2.53;1.90;;;22.80;70.60;;;;;;6288582;22;20030;-71
2021/06/10 17:01:18;;;;;;;3.33;1.40;;;22.80;70.90;;;;;;6288197;22;20012;-72
2021/06/10 17:04:00;;;;;;;2.80;2.17;;;22.80;71.30;;;;;;6288953;22;20038;-71
2021/06/10 17:06:54;;;;;;;4.50;2.03;;;22.80;71.40;;;;;;6281144;22;20019;-73
2021/06/10 17:09:26;;;;;;;3.00;1.42;;;22.90;71.70;;;;;;6273306;22;20043;-69
2021/06/10 17:11:54;;;;;;;2.78;1.60;;;22.90;71.60;;;;;;6289022;22;20081;-72
2021/06/10 17:14:22;;;;;;;3.90;1.80;;;22.90;71.50;;;;;;6288553;22;20438;-71
2021/06/10 17:16:49;;;;;;;5.18;2.17;;;22.90;71.80;;;;;;6288165;22;20346;-70
2021/06/10 17:19:15;;;;;;;4.97;3.47;;;22.90;71.70;;;;;;6262352;22;20086;-72
2021/06/10 17:21:43;;;;;;;6.93;2.78;;;22.90;71.70;;;;;;6288602;22;20116;-78
2021/06/10 17:24:09;;;;;;;6.85;3.65;;;22.90;72.20;;;;;;6288840;22;20093;-78
2021/06/10 17:26:36;;;;;;;6.72;5.07;;;22.90;72.40;;;;;;6288011;22;20019;-77
2021/06/10 17:29:06;;;;;;;7.20;5.20;;;22.90;73.10;;;;;;6288325;22;20016;-80
2021/06/10 17:31:32;;;;;;;7.78;4.38;;;23.00;73.30;;;;;;6288699;22;20016;-73
2021/06/10 17:33:58;;;;;;;7.03;3.90;;;22.90;72.90;;;;;;6289462;22;20023;-74
2021/06/10 17:36:23;;;;;;;10.85;3.83;;;22.90;72.60;;;;;;6288686;22;20047;-73
2021/06/10 17:38:49;;;;;;;4.47;3.50;;;22.90;72.30;;;;;;6289515;22;20012;-73
2021/06/10 17:41:15;;;;;;;5.00;3.08;;;22.90;72.30;;;;;;6288239;22;20019;-73
2021/06/10 17:43:42;;;;;;;5.35;3.58;;;22.90;72.40;;;;;;6288838;22;20019;-72
2021/06/10 17:46:08;;;;;;;7.70;4.05;;;22.90;72.40;;;;;;6288402;22;20029;-73
2021/06/10 17:48:34;;;;;;;5.72;3.45;;;22.90;73.00;;;;;;6288679;22;20039;-73
2021/06/10 17:51:00;;;;;;;7.10;3.72;;;22.90;72.50;;;;;;6288673;22;20090;-72
2021/06/10 17:53:26;;;;;;;6.15;3.30;;;22.90;72.30;;;;;;6288988;22;20015;-75
2021/06/10 17:55:53;;;;;;;5.43;3.40;;;22.90;72.80;;;;;;6289203;22;20027;-73
2021/06/10 17:58:20;;;;;;;6.45;3.10;;;22.90;72.70;;;;;;6290117;22;20073;-74
2021/06/10 18:00:46;;;;;;;5.05;3.30;;;22.90;72.70;;;;;;6290324;22;20087;-73
2021/06/10 18:03:12;;;;;;;3.50;2.75;;;22.90;72.90;;;;;;6290901;22;20415;-74
2021/06/10 18:05:38;;;;;;;4.88;2.78;;;22.90;72.90;;;;;;6279616;22;20115;-73
2021/06/10 18:08:04;;;;;;;5.03;2.47;;;22.80;72.50;;;;;;6288500;22;20023;-75
2021/06/10 18:10:31;;;;;;;4.78;2.50;;;22.80;72.30;;;;;;6288148;22;20396;-73
2021/06/10 18:13:01;;;;;;;3.53;2.33;;;22.80;72.10;;;;;;6288597;22;20022;-74
2021/06/10 18:15:27;;;;;;;3.00;2.20;;;22.80;72.00;;;;;;6289206;22;20015;-74
2021/06/10 18:17:53;;;;;;;4.97;2.40;;;22.80;72.10;;;;;;6288685;22;20012;-73
2021/06/10 18:20:19;;;;;;;3.75;2.08;;;22.80;72.20;;;;;;6288384;22;20286;-74
2021/06/10 18:22:46;;;;;;;5.85;2.60;;;22.80;72.20;;;;;;6288451;22;20406;-72
2021/06/10 18:25:13;;;;;;;4.97;2.17;;;22.70;72.20;;;;;;6288589;22;20040;-74
2021/06/10 18:27:40;;;;;;;7.65;2.72;;;22.80;72.30;;;;;;6288291;22;20019;-74
2021/06/10 18:30:06;;;;;;;6.30;2.70;;;22.70;72.20;;;;;;6261826;22;20011;-73
2021/06/10 18:32:32;;;;;;;3.78;2.33;;;22.70;72.20;;;;;;6288621;22;20031;-73
2021/06/10 18:34:58;;;;;;;5.53;2.90;;;22.70;72.30;;;;;;6288990;22;20024;-73
2021/06/10 18:37:24;;;;;;;4.97;2.63;;;22.70;72.30;;;;;;6288614;22;20083;-73
2021/06/10 18:39:51;;;;;;;4.80;2.22;;;22.70;72.30;;;;;;6288366;22;20039;-73
2021/06/10 18:42:17;;;;;;;3.03;2.20;;;22.70;72.30;;;;;;6288358;22;20011;-74
2021/06/10 18:44:45;;;;;;;5.40;2.33;;;22.70;72.30;;;;;;6278782;22;20020;-73
2021/06/10 18:47:14;;;;;;;5.53;3.03;;;22.70;72.30;;;;;;6288208;22;20034;-76
2021/06/10 18:49:45;;;;;;;4.25;2.55;;;22.70;72.20;;;;;;6288027;22;20491;-73
2021/06/10 18:52:11;;;;;;;5.25;2.58;;;22.70;72.10;;;;;;6289186;22;20050;-74
2021/06/10 18:54:37;;;;;;;4.00;2.50;;;22.70;72.00;;;;;;6288553;22;20008;-74
2021/06/10 18:57:06;;;;;;;5.28;1.95;;;22.70;72.00;;;;;;6288530;22;20104;-73
2021/06/10 18:59:32;;;;;;;3.47;2.17;;;22.70;71.90;;;;;;6288454;22;20023;-73
2021/06/10 19:01:58;;;;;;;5.30;2.33;;;22.70;71.90;;;;;;6288862;22;20285;-74
2021/06/10 19:04:24;;;;;;;5.43;2.58;;;22.70;71.80;;;;;;6288220;22;20442;-75
2021/06/10 19:06:50;;;;;;;2.25;1.90;;;22.70;71.80;;;;;;6274173;22;109577;-72
2021/06/10 19:09:16;;;;;;;4.45;2.17;;;22.70;71.80;;;;;;6289557;22;20489;-73
2021/06/10 19:11:43;;;;;;;4.55;2.50;;;22.70;71.70;;;;;;6289536;22;20016;-73
2021/06/10 19:14:08;;;;;;;3.85;2.67;;;22.70;71.70;;;;;;6289969;22;20115;-73
2021/06/10 19:16:35;;;;;;;2.78;2.08;;;22.70;71.60;;;;;;6290050;22;20300;-74
2021/06/10 19:19:00;;;;;;;2.58;2.10;;;22.70;71.50;;;;;;6289290;22;20011;-73
2021/06/10 19:21:28;;;;;;;3.40;2.15;;;22.70;71.50;;;;;;6289955;22;20080;-73
2021/06/10 19:23:54;;;;;;;3.95;2.20;;;22.70;71.40;;;;;;6288810;22;20427;-73
2021/06/10 19:26:21;;;;;;;3.33;2.15;;;22.70;71.40;;;;;;6277998;22;20015;-74
2021/06/10 19:28:48;;;;;;;2.25;1.92;;;22.70;71.30;;;;;;6277521;22;20054;-78
2021/06/10 19:31:14;;;;;;;10.00;3.55;;;22.70;71.20;;;;;;6278518;22;20090;-76
2021/06/10 19:36:38;;;;;;;7.85;5.70;;;22.70;70.10;;;;;;6254711;22;20020;-76
2021/06/10 19:39:06;;;;;;;10.15;8.07;;;22.60;69.50;;;;;;6289380;22;20065;-78
2021/06/10 19:41:32;;;;;;;12.30;8.07;;;22.50;68.90;;;;;;6289396;22;20016;-79
2021/06/10 19:43:58;;;;;;;11.55;8.75;;;22.50;68.70;;;;;;6288823;22;20022;-75
2021/06/10 19:46:26;;;;;;;12.23;8.85;;;22.40;68.70;;;;;;6289284;22;20015;-75
2021/06/10 19:48:53;;;;;;;15.50;10.45;;;22.30;68.60;;;;;;6289205;22;20035;-76
2021/06/10 19:51:19;;;;;;;10.80;9.00;;;22.30;68.70;;;;;;6288976;22;20007;-71
2021/06/10 19:53:45;;;;;;;10.55;8.65;;;22.30;68.80;;;;;;6288871;22;20016;-72
2021/06/10 19:56:11;;;;;;;10.15;7.85;;;22.30;68.90;;;;;;6289219;22;20023;-71
2021/06/10 19:58:41;;;;;;;10.65;8.27;;;22.30;69.10;;;;;;6288851;22;20433;-74
2021/06/10 20:01:07;;;;;;;10.30;7.63;;;22.30;69.40;;;;;;6278290;22;20420;-73
2021/06/10 20:03:33;;;;;;;10.38;6.97;;;22.40;69.50;;;;;;6278332;22;20011;-73
2021/06/10 20:06:03;;;;;;;8.48;6.32;;;22.40;69.60;;;;;;6277637;22;20034;-74
2021/06/10 20:08:33;;;;;;;8.38;6.78;;;22.40;69.70;;;;;;6289037;22;20023;-73
2021/06/10 20:10:59;;;;;;;9.13;6.32;;;22.40;70.10;;;;;;6289179;22;20015;-71
2021/06/10 20:13:26;;;;;;;7.82;5.65;;;22.40;70.10;;;;;;6287857;22;20024;-68
2021/06/10 20:15:51;;;;;;;9.80;6.45;;;22.40;70.20;;;;;;6288625;22;20020;-72
2021/06/10 20:18:17;;;;;;;6.90;5.43;;;22.40;70.20;;;;;;6288567;22;20011;-73
2021/06/10 20:20:43;;;;;;;7.80;5.05;;;22.40;70.20;;;;;;6288597;22;20016;-73
2021/06/10 20:23:10;;;;;;;6.18;5.22;;;22.50;70.20;;;;;;6288645;22;20439;-73
2021/06/10 20:25:35;;;;;;;8.75;5.20;;;22.50;70.30;;;;;;6278612;22;20023;-73
2021/06/10 20:30:46;;;;;;;5.18;4.50;;;22.40;70.20;;;;;;6288869;22;20018;-72
2021/06/10 20:33:12;;;;;;;6.50;4.68;;;22.50;70.20;;;;;;6290014;22;20375;-71
2021/06/10 20:35:39;;;;;;;5.53;4.43;;;22.50;70.10;;;;;;6289212;22;20313;-71
2021/06/10 20:38:06;;;;;;;7.25;4.03;;;22.50;70.10;;;;;;6289445;22;20023;-72
2021/06/10 20:40:33;;;;;;;4.97;4.00;;;22.50;70.10;;;;;;6279752;22;20107;-72
2021/06/10 20:43:00;;;;;;;6.72;4.40;;;22.50;70.10;;;;;;6288718;22;20308;-71
2021/06/10 20:45:26;;;;;;;4.50;4.00;;;22.50;70.10;;;;;;6289241;22;20019;-71
2021/06/10 20:47:53;;;;;;;5.20;3.85;;;22.50;70.10;;;;;;6289285;22;20316;-72
2021/06/10 20:50:19;;;;;;;5.30;3.83;;;22.50;70.00;;;;;;6288502;22;20032;-72
2021/06/10 20:52:45;;;;;;;5.35;3.92;;;22.50;69.90;;;;;;6288666;22;20012;-72
2021/06/10 20:55:11;;;;;;;5.35;3.75;;;22.50;69.80;;;;;;6287849;22;20019;-72
2021/06/10 20:57:37;;;;;;;5.55;3.30;;;22.50;69.80;;;;;;6288437;22;20015;-72
2021/06/10 21:00:06;;;;;;;4.72;3.20;;;22.50;69.60;;;;;;6287982;22;20020;-72
2021/06/10 21:02:32;;;;;;;3.85;3.42;;;22.50;69.60;;;;;;6288908;22;20071;-71
2021/06/10 21:04:58;;;;;;;3.67;3.10;;;22.50;69.60;;;;;;6286729;22;20011;-71
2021/06/10 21:07:24;;;;;;;3.90;3.38;;;22.50;69.50;;;;;;6278131;22;20015;-71
2021/06/10 21:09:50;;;;;;;4.40;3.42;;;22.50;69.50;;;;;;6262261;22;20093;-73
2021/06/10 21:12:21;;;;;;;4.50;2.70;;;22.50;69.50;;;;;;6288884;22;20012;-74
2021/06/10 21:14:48;;;;;;;4.80;3.42;;;22.50;69.40;;;;;;6289850;22;20023;-74
2021/06/10 21:17:15;;;;;;;3.88;3.13;;;22.40;69.40;;;;;;6289227;22;20016;-74
2021/06/10 21:19:42;;;;;;;3.88;2.97;;;22.50;69.50;;;;;;6278869;22;20011;-74
2021/06/10 21:22:08;;;;;;;4.40;2.85;;;22.40;69.40;;;;;;6289132;22;20020;-74
2021/06/10 21:24:34;;;;;;;4.40;3.15;;;22.40;69.40;;;;;;6289142;22;20039;-74
2021/06/10 21:27:01;;;;;;;3.38;2.90;;;22.40;69.40;;;;;;6288848;22;20016;-73
2021/06/10 21:29:27;;;;;;;3.92;2.85;;;22.40;69.30;;;;;;6278558;22;20016;-73
2021/06/10 21:31:54;;;;;;;3.17;2.88;;;22.40;69.40;;;;;;6280735;22;20020;-73
2021/06/10 21:34:20;;;;;;;4.10;3.17;;;22.40;69.40;;;;;;6290814;22;20079;-72
2021/06/10 21:36:47;;;;;;;3.50;2.90;;;22.40;69.30;;;;;;6290833;22;20090;-73
2021/06/10 21:39:14;;;;;;;2.95;2.60;;;22.40;69.30;;;;;;6280327;22;20015;-73
2021/06/10 21:41:40;;;;;;;3.05;2.75;;;22.40;69.20;;;;;;6281744;22;20162;-74
2021/06/10 21:44:08;;;;;;;2.60;2.35;;;22.40;69.10;;;;;;6290561;22;20011;-73
2021/06/10 21:46:34;;;;;;;3.05;2.42;;;22.40;69.10;;;;;;6291196;22;20085;-74
2021/06/10 21:49:00;;;;;;;3.15;2.85;;;22.40;69.20;;;;;;6281352;22;20377;-73
2021/06/10 21:51:26;;;;;;;3.67;3.15;;;22.40;69.10;;;;;;6290538;22;20016;-73
2021/06/10 21:53:51;;;;;;;3.08;2.80;;;22.40;69.10;;;;;;6291324;22;20050;-74
2021/06/10 21:56:17;;;;;;;3.30;2.97;;;22.40;69.10;;;;;;6290887;22;20329;-73
2021/06/10 21:58:43;;;;;;;3.45;3.15;;;22.40;69.10;;;;;;6290307;22;20019;-73
2021/06/10 22:01:09;;;;;;;2.67;2.47;;;22.40;69.10;;;;;;6290902;22;20038;-74
2021/06/10 22:03:35;;;;;;;3.03;2.72;;;22.30;69.00;;;;;;6290793;22;20016;-73
2021/06/10 22:06:03;;;;;;;3.63;2.75;;;22.40;69.00;;;;;;6284970;22;20022;-73
2021/06/10 22:08:29;;;;;;;3.40;2.60;;;22.40;69.00;;;;;;6290178;22;20012;-73
2021/06/10 22:10:55;;;;;;;3.53;2.80;;;22.30;68.90;;;;;;6290463;22;20313;-73
2021/06/10 22:13:21;;;;;;;2.92;2.63;;;22.40;69.00;;;;;;6280384;22;20031;-73
2021/06/10 22:15:47;;;;;;;3.03;2.80;;;22.30;68.90;;;;;;6291493;22;20416;-72
2021/06/10 22:18:16;;;;;;;3.40;3.10;;;22.30;69.00;;;;;;6280462;22;20019;-72
2021/06/10 22:20:44;;;;;;;3.15;2.85;;;22.30;69.00;;;;;;6280049;22;20031;-72
2021/06/10 22:23:11;;;;;;;3.30;3.00;;;22.30;69.00;;;;;;6279736;22;20320;-72
2021/06/10 22:25:38;;;;;;;3.10;2.75;;;22.30;69.00;;;;;;6290502;22;20032;-72
2021/06/10 22:28:05;;;;;;;3.70;2.80;;;22.30;69.00;;;;;;6290384;22;20304;-72
2021/06/10 22:30:35;;;;;;;3.20;2.78;;;22.30;68.90;;;;;;6290721;22;20023;-72
2021/06/10 22:33:08;;;;;;;3.20;2.90;;;22.30;69.00;;;;;;6280057;22;20057;-72
2021/06/10 22:35:37;;;;;;;4.78;2.83;;;22.30;68.90;;;;;;6289664;22;20046;-72
2021/06/10 22:38:04;;;;;;;2.60;2.40;;;22.20;68.90;;;;;;6289999;22;20016;-72
2021/06/10 22:40:35;;;;;;;3.20;2.90;;;22.30;68.90;;;;;;6279911;22;20026;-72
2021/06/10 22:43:03;;;;;;;3.22;2.90;;;22.30;68.80;;;;;;6289612;22;20367;-73
2021/06/10 22:45:31;;;;;;;4.32;3.10;;;22.30;68.90;;;;;;6290078;22;20080;-73
2021/06/10 22:48:05;;;;;;;3.85;2.85;;;22.30;68.80;;;;;;6290075;22;20016;-73
2021/06/10 22:50:34;;;;;;;3.05;2.55;;;22.20;68.70;;;;;;6280176;22;20306;-72
2021/06/10 22:53:00;;;;;;;3.60;3.03;;;22.30;68.80;;;;;;6280401;22;20080;-72
2021/06/10 22:55:30;;;;;;;3.67;3.38;;;22.20;68.80;;;;;;6290107;22;20038;-73
2021/06/10 22:57:57;;;;;;;3.60;2.75;;;22.20;68.70;;;;;;6289618;22;20016;-72
2021/06/10 23:00:23;;;;;;;3.92;2.95;;;22.30;68.80;;;;;;6289884;22;20020;-72
2021/06/10 23:02:50;;;;;;;3.90;3.00;;;22.20;68.70;;;;;;6290097;22;20015;-72
2021/06/10 23:05:16;;;;;;;3.50;3.20;;;22.20;68.70;;;;;;6286471;22;20015;-72
2021/06/10 23:07:42;;;;;;;3.42;3.13;;;22.20;68.70;;;;;;6280563;22;20019;-72
2021/06/10 23:10:10;;;;;;;3.92;3.33;;;22.20;68.70;;;;;;6289614;22;20019;-72
2021/06/10 23:12:36;;;;;;;3.63;3.28;;;22.10;68.60;;;;;;6289932;22;20012;-73
2021/06/10 23:15:04;;;;;;;4.20;3.08;;;22.20;68.70;;;;;;6279445;22;20012;-72
2021/06/10 23:17:31;;;;;;;4.20;2.90;;;22.20;68.70;;;;;;6289379;22;20363;-72
2021/06/10 23:19:56;;;;;;;3.75;3.33;;;22.10;68.60;;;;;;6279834;22;20020;-73
2021/06/10 23:22:29;;;;;;;3.58;3.00;;;22.20;68.70;;;;;;6278988;22;20042;-72
2021/06/10 23:24:55;;;;;;;3.58;3.28;;;22.10;68.60;;;;;;6279675;22;20022;-72
2021/06/10 23:27:21;;;;;;;3.80;3.40;;;22.20;68.70;;;;;;6289179;22;20016;-73
2021/06/10 23:29:47;;;;;;;3.58;2.92;;;22.20;68.70;;;;;;6279799;22;20477;-73
2021/06/10 23:32:13;;;;;;;3.15;2.85;;;22.20;68.70;;;;;;6279412;22;20022;-73
2021/06/10 23:34:39;;;;;;;4.65;3.60;;;22.10;68.60;;;;;;6279040;22;20110;-73
2021/06/10 23:37:05;;;;;;;4.43;3.40;;;22.20;68.70;;;;;;6279987;22;20020;-72
2021/06/10 23:39:30;;;;;;;3.55;3.25;;;22.10;68.60;;;;;;6289260;22;20020;-72
2021/06/10 23:41:56;;;;;;;3.65;3.33;;;22.10;68.60;;;;;;6278791;22;20030;-72
2021/06/10 23:44:22;;;;;;;3.97;3.45;;;22.10;68.60;;;;;;6252522;22;20058;-73
2021/06/10 23:46:49;;;;;;;4.13;3.55;;;22.10;68.60;;;;;;6279172;22;20030;-72
2021/06/10 23:49:14;;;;;;;3.90;3.50;;;22.10;68.60;;;;;;6289449;22;20015;-73
2021/06/10 23:51:42;;;;;;;4.68;4.18;;;22.20;68.60;;;;;;6253171;22;20015;-72
2021/06/10 23:54:08;;;;;;;3.67;3.33;;;22.10;68.60;;;;;;6289018;22;20447;-73
2021/06/10 23:56:35;;;;;;;3.55;3.25;;;22.20;68.60;;;;;;6280121;22;20090;-72
2021/06/10 23:59:01;;;;;;;3.97;3.50;;;22.10;68.60;;;;;;6279005;22;20016;-73
